Challenge ACRHO

Les 10 Km De Dottignies (10.00 km)

dimanche 16 février 2020

Vous pouvez trouver le classement original sur : http://www.acrho.org/
CHALLENGE ACRHO
LES 10 KM DE DOTTIGNIES
Distance : 10.00 km
dimanche 16 février 2020
 
place Nom Equipe Catég. Pl/Cat. temps temps/km Vitesse
1 DE BORLE KRISTOF   SE 1 00:35:08 03:31 17.07
2 LECOEUCHE ARNAUD JSMC V1 1 00:35:09 03:31 17.06
3 DUJARDYN PEDRO   V1 2 00:35:41 03:34 16.81
4 BLOUSE CEDRIC DOUR SPORTS SE 2 00:35:54 03:35 16.71
5 THÉMONT JÉRÔME FLOWRAID SE 3 00:35:57 03:36 16.68
6 LAEVENS BRAM   SE 4 00:36:06 03:37 16.61
7 DELOMBAERDE DIMITRI JCSA V1 3 00:36:15 03:38 16.54
8 NOREILDE DIETER   SE 5 00:36:35 03:40 16.39
9 MESTAG BENOIT PIPAIX SE 6 00:36:37 03:40 16.38
10 ROLET SYLVAIN FORMYFIT V1 4 00:36:49 03:41 16.29
11 PARENT QUENTIN FLOWRAID SE 7 00:36:53 03:41 16.26
12 DEFRISE GRÉGORY DOUR SPORTS V1 5 00:37:08 03:43 16.15
13 VOET FREDERIC AP3T SE 8 00:37:16 03:44 16.09
14 VAN DEN BRULLE JO JC HERZELE V1 6 00:37:35 03:46 15.96
15 LABEAU STÉPHANE ATH V2 1 00:37:54 03:48 15.82
16 BLANPAIN PAUL L'AS DE LA T... SE 9 00:38:00 03:48 15.78
17 DUSAUSOIT EDDY SPHO V2 2 00:38:17 03:50 15.67
18 DILLIES PIERRE-ELOI POPUELLES DR... SE 10 00:38:17 03:50 15.67
19 MASSIN PIERRE   SE 11 00:38:41 03:52 15.50
20 VANALDERWELT CLÉMENT   SE 12 00:38:47 03:53 15.46
21 KOENIG JÉRÉMY JOGGING AVEN... SE 13 00:38:50 03:53 15.44
22 VANDEMEULEBROUCKE YVES AZW V1 7 00:38:52 03:53 15.43
23 TURPYN EDGARD JSMC MOUSCRON EH 1 00:38:53 03:53 15.42
24 GOBERT JÉRÔME PIPAIX SE 14 00:38:55 03:54 15.41
25 DUFERMONT QUENTIN   SE 15 00:39:07 03:55 15.33
26 LEMOINE SAMUEL CAP TEAM V1 8 00:39:18 03:56 15.26
27 BOULANGER JULIEN KERVASSIN SE 16 00:39:36 03:58 15.14
28 CARLOT RAPHAEL ACBB V1 9 00:39:42 03:58 15.11
29 FONTAINE ROBERT   V1 10 00:39:46 03:59 15.08
30 RIGOLE TUUR   SE 17 00:39:48 03:59 15.07
31 HERMAN JIMMY JERUSALEM FO... SE 18 00:40:00 04:00 14.99
32 BAUDOIN PIERRE-ALAIN   SE 19 00:40:06 04:01 14.96
33 VAN NESTÉ MICHEL TEAM RUNNING 46 SE 20 00:40:08 04:01 14.94
34 BLONDELLE JORIS JC ADELARDUS V1 11 00:40:10 04:01 14.93
35 STOCMAN YANNICK CAP TEAM V1 12 00:40:20 04:02 14.87
36 HOCEDEZ STEVEN NLT V2 3 00:40:29 04:03 14.81
37 RENARD ALBERT PIPAIX SE 21 00:40:32 04:03 14.80
38 DELABIE KÉVIN AG INSURANCE... SE 22 00:40:37 04:04 14.77
39 CATOUL EMMANUEL   V1 13 00:40:52 04:05 14.68
40 GUSTIN JEFF RC ESTAIMPUIS SE 23 00:40:55 04:06 14.66
41 CLINQUART GILLES COACH RUNNING SE 24 00:40:56 04:06 14.65
42 HELIN FRANCOIS DOUR SPORTS SE 25 00:40:56 04:06 14.65
43 HAEGEMAN GEERT   V2 4 00:41:04 04:07 14.60
44 DEBOUVRIE ELIAN ACBB EH 2 00:41:06 04:07 14.59
45 FOURDIN VINCENT KERVASSIN SE 26 00:41:07 04:07 14.59
46 DUMOULIN ARNAUD FLOWRAID SE 27 00:41:07 04:07 14.59
47 VANDEPUTTE CHRISTOPHE JC HERINNES V1 14 00:41:16 04:08 14.53
48 DECOCQ JACQUES-ANTOINE ETM SE 28 00:41:20 04:08 14.51
49 BODARWE ANTOINE   SE 29 00:41:29 04:09 14.46
50 CABO THIBAUT HAVIGNOBLE SE 30 00:41:43 04:10 14.38
51 BILLET GRÉGORY POPUELLES DR... V1 15 00:41:57 04:12 14.30
52 DOOMS THIERRY   V2 5 00:42:15 04:14 14.19
53 HACHE FABIEN   SE 31 00:42:25 04:15 14.14
54 MAKHLOUFI HAMOUDA   V1 16 00:42:27 04:15 14.13
55 TORTORA BENOÎT KERVASSIN SE 32 00:42:33 04:15 14.09
56 MOREST DIETER   SE 33 00:42:36 04:16 14.08
57 AMORISON ANDY   SE 34 00:42:46 04:17 14.02
58 VAN HULLE FRANÇOIS TDP SE 35 00:42:54 04:18 13.98
59 MARYSSE REMI   SE 36 00:43:02 04:18 13.94
60 WAUQUIEZ XAVIER   V1 17 00:43:14 04:20 13.87
61 TANCRE DIMITRI   SE 37 00:43:19 04:20 13.85
62 DELY MAXIME   SE 38 00:43:23 04:20 13.82
63 DERYCKE ANTHONY CAP TEAM SE 39 00:43:27 04:21 13.80
64 FLAMMIA FRANCOIS CAP TEAM SE 40 00:43:27 04:21 13.80
65 TRAJIUS GABRIEL BCM VTT V2 6 00:43:35 04:22 13.76
66 DECALUWÉ KELLY TRIGT DA 1 00:43:35 04:22 13.76
67 CALLENS PIERRE-YVES COURIR A COM... EH 3 00:43:42 04:22 13.72
68 LAEBENS FRANÇOIS RC ESTAIMPUIS SE 41 00:43:48 04:23 13.69
69 MASELIS JOHNNY   V1 18 00:43:51 04:23 13.68
70 LEGRAND LOUIS   V1 19 00:43:55 04:24 13.66
71 DUJARDIN VIRGINIE LES NOIX DE ... A1 1 00:43:58 04:24 13.64
72 PORTANTE FRÉDÉRIC AC ST SAUVEU... SE 42 00:43:58 04:24 13.64
73 DEWITTE JOHN   SE 43 00:44:22 04:26 13.52
74 LAMON PETER   V1 20 00:44:28 04:27 13.49
75 LECOEUCHE IONELA JSMC ED 1 00:44:33 04:27 13.46
76 VAN NIEUWENHUIZE WIM KASVO V1 21 00:44:35 04:28 13.45
77 SAMAIN ANTHONY COACH RUNNING V2 7 00:44:35 04:28 13.45
78 BRICHAUT OLIVIER RUN & SMASH V1 22 00:44:36 04:28 13.45
79 GEETS CÉDRIC   V1 23 00:44:39 04:28 13.43
80 VERMEERSCH KOEN VACBL V1 24 00:44:48 04:29 13.39
81 DEDEURWAERDER STEVE   SE 44 00:44:51 04:29 13.37
82 VANDENBERGHE LOUIS POPUELLES DR... SE 45 00:45:02 04:30 13.32
83 DEQUIN FRÉDÉRIC POPUELLES DR... V1 25 00:45:03 04:30 13.31
84 RASSCHAERT EDDY POPUELLES DR... V2 8 00:45:03 04:30 13.31
85 CANTREUL VINCENT POPUELLES DR... SE 46 00:45:04 04:31 13.31
86 DERYCKE VINCENT RC ESTAIMPUIS V2 9 00:45:07 04:31 13.29
87 ARESU FABIAN   V1 26 00:45:14 04:32 13.26
88 WANEUKEM PHILIPPE LES CEUSSES ... V1 27 00:45:17 04:32 13.24
89 VILLANI ANTONIO   V1 28 00:45:17 04:32 13.24
90 DECLERCQ BENOÎT JSMC V1 29 00:45:23 04:32 13.21
91 DUMORTIER LUDOVIC WRC SE 47 00:45:24 04:33 13.21
92 CHUFFART CHRISTOPHE LES GENS D ERE V1 30 00:45:30 04:33 13.18
93 DEDRYVER FABIEN   SE 48 00:45:32 04:33 13.17
94 REYBROECK ALEXANDRE TEAM RUNNING 46 SE 49 00:45:38 04:34 13.14
95 DEGALLAIX JÉRÔME   SE 50 00:45:41 04:34 13.13
96 LEDENT JÉRÉMY BAC SE 51 00:45:44 04:35 13.11
97 WESTERLINCK STEFAAN DE DARTELE D... V1 31 00:45:46 04:35 13.10
98 DEFFERNEZ GAUTHIER TRIGT V1 32 00:45:47 04:35 13.10
99 SOLDAI PATRICK   V3 1 00:45:49 04:35 13.09
100 VANHAEBOST GEORGES FLOC V2 10 00:45:51 04:35 13.08
101 VINCHENT MIGUËL VELAINES V1 33 00:45:51 04:35 13.08
102 PHELIZON CHRISTOPHE TEMPLEUVE V2 11 00:45:52 04:35 13.08
103 RONDELAERE TOM CRAZY WHEELS V1 34 00:45:53 04:35 13.07
104 VERCRUYSSE AMAURY   EH 4 00:45:58 04:36 13.05
105 MELCHIOR JEAN-ROMAIN POPUELLES DR... V1 35 00:45:59 04:36 13.04
106 PIROTTE JARNO JCSA SE 52 00:46:07 04:37 13.00
107 THULIER KEVIN   V1 36 00:46:09 04:37 13.00
108 ROZEL NATHAN SUKCESTFOU EH 5 00:46:09 04:37 13.00
109 KADDOUR MEHDY   SE 53 00:46:09 04:37 13.00
110 DELBROECK QUENTIN   SE 54 00:46:10 04:37 12.99
111 NUTTIN SÉBASTIEN   SE 55 00:46:11 04:37 12.99
112 DE CUBBER MARC BAC V3 2 00:46:15 04:38 12.97
113 HEERLEIN PIERRE-HENRY   SE 56 00:46:15 04:38 12.97
114 GHISLAIN LUC   V1 37 00:46:15 04:38 12.97
115 VERSTRAETE VINCENT   V1 38 00:46:16 04:38 12.96
116 VANOVERSCHELDE FRANCOIS RC ESTAIMPUIS V1 39 00:46:18 04:38 12.95
117 ROZEL GAUTHIER SUKCESTFOU V1 40 00:46:18 04:38 12.95
118 DELDAELE BASILE   SE 57 00:46:23 04:38 12.93
119 BARREZ FRANCIS LES CEUSSES ... V3 3 00:46:23 04:38 12.93
120 LECLERCQ EDDY KAIN B V3 4 00:46:23 04:38 12.93
121 BRALION CÉDRIC   V1 41 00:46:25 04:39 12.92
122 DUQUENNE MICHEL JCSA V3 5 00:46:26 04:39 12.92
123 MAHIEU LAURENT COACH RUNNING V1 42 00:46:26 04:39 12.92
124 DEPRETZ FRÉDÉRIC TEAM RUNNING 46 V1 43 00:46:27 04:39 12.91
125 FICHELLE CHARLES   EH 6 00:46:29 04:39 12.90
126 MAHIEU GILLES COACH RUNNING EH 7 00:46:33 04:39 12.88
127 JOULIN ELOÏSE   ED 2 00:46:36 04:40 12.87
128 BLAUBLOMME LUDOVIC   V1 44 00:46:36 04:40 12.87
129 CARPENTIER MICHAEL MMM V1 45 00:46:38 04:40 12.86
130 JUCHTMANS DAVID ALESS TEAM SE 58 00:46:39 04:40 12.86
131 PARENT CHARLOTTE   A1 2 00:46:40 04:40 12.85
132 PIERRE OPHÉLIE   DA 2 00:46:43 04:40 12.84
133 DECRUYENAERE BASTIEN   EH 8 00:46:48 04:41 12.81
134 VAN MALLEGHEM ANTOINE   SE 59 00:46:50 04:41 12.81
135 BALCAEN PHILIPPE   V2 12 00:47:02 04:42 12.75
136 DIRICQ GWENAELLE AC ST SAUVEU... A1 3 00:47:02 04:42 12.75
137 CAMBERLIN LAURENT POPUELLES DR... V1 46 00:47:07 04:43 12.73
138 MORIAU THOMAS   EH 9 00:47:09 04:43 12.72
139 CORNU GAËTAN KAIN B V2 13 00:47:10 04:43 12.72
140 BROUILLARD VINCENT TOURNAI GENE... V1 47 00:47:11 04:43 12.71
141 KRISTIAENS SAMUEL JCL V1 48 00:47:12 04:43 12.71
142 LENEZ MATHIEU KAIN B V1 49 00:47:12 04:43 12.71
143 MORES MAXIME KAIN B SE 60 00:47:12 04:43 12.71
144 SANTY RUDY COACH RUNNING V2 14 00:47:15 04:44 12.69
145 VANASSCHE PETER   V1 50 00:47:15 04:44 12.69
146 FROISSART FABRICE SPHO V2 15 00:47:20 04:44 12.67
147 DELHALLE XAVIER ANDRES TEAM SE 61 00:47:21 04:44 12.67
148 OBSOMER ANDRÉ VELAINES V3 6 00:47:23 04:44 12.66
149 VANSLEMBROUCK HUBERT CAP TEAM V1 51 00:47:24 04:45 12.65
150 CARDON FABRICE   V2 16 00:47:27 04:45 12.64
151 MAILLY ALBERT   SE 62 00:47:28 04:45 12.63
152 VERWAERDE OLIVIER   V1 52 00:47:32 04:45 12.62
153 FOUQUETTE SÉBASTIEN ADDM OGY V1 53 00:47:33 04:45 12.61
154 GOUGEON MAXIME   SE 63 00:47:38 04:46 12.59
155 COLMANT ALEXANDRE   SE 64 00:47:45 04:47 12.56
156 MDAGURI ALAOUI ISMAËL JUPITEAM V1 54 00:47:45 04:47 12.56
157 DEMARET CHRISTOPHE TORTUES MESL... V1 55 00:47:45 04:47 12.56
158 BROCART CHARLES JUDO CLUB SA... V1 56 00:47:46 04:47 12.56
159 DUJARDIN AUXANNE LES NOIX DE ... ED 3 00:47:47 04:47 12.55
160 DEMETS BERNARD VELAINES V1 57 00:47:48 04:47 12.55
161 RYCKAERT ALAIN TORTUES MESL... V2 17 00:47:51 04:47 12.53
162 DE MUNCK TANGUY TORTUES MESL... V1 58 00:47:52 04:47 12.53
163 DUJARDIN CATHERINE LES NOIX DE ... DA 3 00:47:57 04:48 12.51
164 CAMBIER DAVID   V1 59 00:47:57 04:48 12.51
165 TASKIN KENAN RUNNING SAFE SE 65 00:48:02 04:48 12.49
166 DEVILLERS TOINE   EH 10 00:48:03 04:48 12.48
167 DUHEM JONATHAN BAC SE 66 00:48:03 04:48 12.48
168 KULESKI CHARLES   SE 67 00:48:04 04:49 12.48
169 VAN DYK DAMIEN TEMPLEUVE V1 60 00:48:05 04:49 12.47
170 DENAYS CHARLOTTE RUNNING SAFE DA 4 00:48:05 04:49 12.47
171 DE MEESTER BRADELEY   SE 68 00:48:08 04:49 12.46
172 MASELIS RUDI COACH RUNNING V1 61 00:48:08 04:49 12.46
173 VAN BELLE MATHIEU   SE 69 00:48:09 04:49 12.46
174 DERYCKER PIERRE-YVES   SE 70 00:48:11 04:49 12.45
175 DEWAELE THOMAS   SE 71 00:48:11 04:49 12.45
176 BERIBREUX SEBASTIEN   V1 62 00:48:12 04:49 12.44
177 NONCKELYNCK JULIEN   SE 72 00:48:12 04:49 12.44
178 MARGINET OLIVIER JC HERINNES V2 18 00:48:12 04:49 12.44
179 PATIN SERGE COACH RUNNING V2 19 00:48:16 04:50 12.43
180 NIEUWLAND JEAN-FRANÇOIS LES CHAPELIE... V1 63 00:48:19 04:50 12.41
181 DUPREZ CHRISTOPHER   SE 73 00:48:19 04:50 12.41
182 PILLET FRANCIS   SE 74 00:48:20 04:50 12.41
183 MANCHE DAVID TEMPLEUVE V1 64 00:48:23 04:50 12.40
184 DERMAUT STÉPHANE WRC V1 65 00:48:26 04:51 12.38
185 MASELIS PASCAL COACH RUNNING V1 66 00:48:30 04:51 12.37
186 MARIAGE MICHEL BAC V3 7 00:48:31 04:51 12.36
187 SAVARY HUGO FARMERS CLUB V1 67 00:48:31 04:51 12.36
188 HERREMAN HÉLÉNE TEMPLEUVE DA 5 00:48:33 04:51 12.35
189 VERSTRAETE MIKE   V1 68 00:48:37 04:52 12.34
190 FEYS BERT DE DARTELE D... SE 75 00:48:37 04:52 12.34
191 VERVACKE CHRISTOPHE VELAINES V2 20 00:48:41 04:52 12.32
192 MASURE SAMUEL AMIENS TRIAT... V2 21 00:48:42 04:52 12.31
193 BOISDENGHIEN VINCENT   SE 76 00:48:45 04:53 12.30
194 DAYE FRANCIS   V3 8 00:48:48 04:53 12.29
195 PERSOONS ISABELLE JC ZWALM A1 4 00:48:49 04:53 12.29
196 CAILLEAU BENJAMIN TORTUES MESL... V1 69 00:48:51 04:53 12.28
197 LECHANTRE SYLVETTE RC ESTAIMPUIS A2 1 00:48:54 04:54 12.26
198 OLBRECHTS NISSIM   SE 77 00:48:57 04:54 12.25
199 GOEBEERT SÉBASTIEN WRC V2 22 00:49:02 04:54 12.23
200 ROCHEZ SÉBASTIEN ACCROS 5 CLO... V1 70 00:49:04 04:55 12.22
201 GLORIEUX PIERRE VELAINES V1 71 00:49:06 04:55 12.21
202 GROUZELLE GUILLAUME   SE 78 00:49:08 04:55 12.21
203 BARDYN NICOLAS BAC V1 72 00:49:11 04:55 12.19
204 PROVOST SEBASTIEN RC ESTAIMPUIS V1 73 00:49:11 04:55 12.19
205 MALLOUDI KARIM RC ESTAIMPUIS V1 74 00:49:13 04:55 12.19
206 LEGRAND FREDERIC POTES O MALTES V1 75 00:49:20 04:56 12.16
207 DEWINTER JONATHAN   SE 79 00:49:26 04:57 12.13
208 COUSIN OLIVIER SUKCESTFOU V1 76 00:49:27 04:57 12.13
209 CARTON NICOLAS JC HERINNES V1 77 00:49:39 04:58 12.08
210 DEGRES ADRIEN   SE 80 00:49:40 04:58 12.08
211 MULNARD DAMIEN   SE 81 00:49:46 04:59 12.05
212 VERDY JACQUES KAIN B V3 9 00:49:48 04:59 12.04
213 OLIVIER LOÏC   SE 82 00:49:51 04:59 12.03
214 LIEVIN DAVID   SE 83 00:49:53 04:59 12.02
215 ARTISIEN VINCENT   V1 78 00:49:56 05:00 12.01
216 ISBLED FABIEN   SE 84 00:49:57 05:00 12.01
217 DUMORTIER THOMAS   SE 85 00:49:57 05:00 12.01
218 BORIGHEM DIDIER MC RUNNING V2 23 00:50:00 05:00 11.99
219 CLEMENT GEORGES PIPAIX SE 86 00:50:04 05:01 11.98
220 CORYN STÉPHANE   V2 24 00:50:05 05:01 11.97
221 MAES JOEL SPHO V2 25 00:50:08 05:01 11.96
222 MATTHYS PASCAL VELAINES V1 79 00:50:09 05:01 11.96
223 GIANNONE ALDO TEMPLEUVE V1 80 00:50:10 05:01 11.95
224 VANDENBROUCKE ARNAUD JSMC SE 87 00:50:12 05:01 11.95
225 DEMAT THOMAS   SE 88 00:50:13 05:01 11.94
226 THOREZ JOHAN   SE 89 00:50:13 05:01 11.94
227 VANAERDE CHARLOTTE COACH RUNNING DA 6 00:50:16 05:02 11.93
228 MAHIEU EDDY PIPAIX V2 26 00:50:19 05:02 11.92
229 VANALDERWELT PAULINE JSMC DA 7 00:50:19 05:02 11.92
230 DUTHOIT BÉNÉDICTE JC HERINNES A2 2 00:50:20 05:02 11.92
231 DE MOOR THIERRY JCL V2 27 00:50:22 05:02 11.91
232 BOUCAUT NICOLAS   SE 90 00:50:24 05:03 11.90
233 LECLERCQ RÉMI   SE 91 00:50:24 05:03 11.90
234 LECLERCQ GAETAN   SE 92 00:50:27 05:03 11.89
235 LEFEVRE STÉPHANE   V2 28 00:50:28 05:03 11.88
236 MERTENS PASCAL COCOACH V2 29 00:50:31 05:03 11.87
237 DE CUBBER JACQUES BAC V3 10 00:50:31 05:03 11.87
238 DEMAIRE LAURENT POTES O MALTES V1 81 00:50:40 05:04 11.84
239 LECOCQ PIERRE CAP TEAM V3 11 00:50:43 05:04 11.83
240 SIMONART CHRISTOPHE   SE 93 00:50:49 05:05 11.80
241 VAN MALLEGHEM ARIANE KAIN B A2 3 00:50:51 05:05 11.79
242 NAESSENS NATHALIE RC ESTAIMPUIS A2 4 00:50:54 05:06 11.78
243 DEVILLERS THIERRY   V1 82 00:50:54 05:06 11.78
244 VANROBAYS DAMIEN   SE 94 00:50:57 05:06 11.77
245 CATTEAU VINCENT RC ESTAIMPUIS V2 30 00:51:00 05:06 11.76
246 MARIAGE TANGUY COACH RUNNING V1 83 00:51:00 05:06 11.76
247 CHAMART ISABELLE   A1 5 00:51:07 05:07 11.73
248 WINAND JEAN-YVES   V1 84 00:51:16 05:08 11.70
249 VANOVERSKELDS DOMINIQUE   V2 31 00:51:16 05:08 11.70
250 DE SMET ALEXANDRINE TORTUES MESL... A1 6 00:51:18 05:08 11.69
251 CRAPEZ LORY TORTUES MESL... V1 85 00:51:18 05:08 11.69
252 ROOSE LAURENT BAC V3 12 00:51:20 05:08 11.68
253 DECONINCK CHRISTOPHE ETM V1 86 00:51:20 05:08 11.68
254 DEGRANSART JOHAN B BETES DE C... V1 87 00:51:21 05:08 11.68
255 ARCHELON FRÉDÉRIC   V1 88 00:51:21 05:08 11.68
256 TRIFFAY LUCAS   EH 11 00:51:24 05:09 11.67
257 VANDERSCHUEREN GUY TOURNAI GENE... V2 32 00:51:30 05:09 11.65
258 TRIFFOY GÉRALD   V1 89 00:51:30 05:09 11.65
259 DEBOUVRIE SÉBASTIEN   V1 90 00:51:31 05:09 11.64
260 DECONINCK JÉRÉMY JCL SE 95 00:51:32 05:09 11.64
261 VEYS SOPHIE   A1 7 00:51:40 05:10 11.61
262 VAN WYNSBERGHE ANTOINE   SE 96 00:51:41 05:10 11.60
263 DECLERCQ THOMAS   SE 97 00:51:48 05:11 11.58
264 GIZZI STÉPHAN TRIATHLON LI... V2 33 00:51:48 05:11 11.58
265 BOIS PIERRE-HENRI JC BLANDAIN V1 91 00:51:49 05:11 11.57
266 GOEMAERE ISABELLE   DA 8 00:51:49 05:11 11.57
267 TITECA LUC   V2 34 00:51:50 05:11 11.57
268 BEAURY CHRISTOPHE BAC V1 92 00:51:53 05:11 11.56
269 DELCAMPE MAXIME   V1 93 00:51:53 05:11 11.56
270 BUYSE FRÉDÉRIC   V1 94 00:51:54 05:12 11.56
271 MESSIAEN THOMAS RTC TOURNAI SE 98 00:51:55 05:12 11.55
272 OPSOMER ALAIN POTES O MALTES V1 95 00:51:55 05:12 11.55
273 FICHERE SYLVAIN RC ESTAIMPUIS V2 35 00:51:56 05:12 11.55
274 LICCIARDO MAXIME   SE 99 00:51:57 05:12 11.54
275 BRAQUENIER CAROLINE RC ESTAIMPUIS A1 8 00:52:02 05:12 11.53
276 COUPLET MAXENCE   EH 12 00:52:05 05:13 11.51
277 DECRUYENAERE FRÉDÉRIC FARMERS CLUB V1 96 00:52:05 05:13 11.51
278 DELCROIX LUC FARMERS CLUB V2 36 00:52:07 05:13 11.51
279 DELMARRE PIERRE FARMERS CLUB V2 37 00:52:09 05:13 11.50
280 TRUANT PHILIP WWW.RUNAISSA... SE 100 00:52:09 05:13 11.50
281 DUPONT MICHAËL COACH RUNNING V1 97 00:52:11 05:13 11.49
282 BRAQUENIER BENOÎT B BETES DE C... V1 98 00:52:20 05:14 11.46
283 MOULIN BAPTISTE RUNNING SAFE SE 101 00:52:30 05:15 11.42
284 DROOGMANS THOMAS ADDM OGY SE 102 00:52:37 05:16 11.40
285 DIEZ ESTEBAN FARMERS CLUB V1 99 00:52:40 05:16 11.39
286 DELANGRE AMÉLIE FARMERS CLUB A1 9 00:52:40 05:16 11.39
287 GIZZI DOROTHÉE   A2 5 00:52:47 05:17 11.36
288 DUHEM GÉRARD BAC V2 38 00:52:50 05:17 11.35
289 BROUSSE JEROME RC ESTAIMPUIS V1 100 00:52:54 05:18 11.34
290 DUPONCHEEL JEAN-CLAUDE RC ESTAIMPUIS V2 39 00:52:56 05:18 11.33
291 VANDEMEULEBROUCKE KEVIN RC ESTAIMPUIS SE 103 00:52:57 05:18 11.33
292 HENNEBICQ LAURENT PIPAIX V2 40 00:53:00 05:18 11.32
293 DECOCK JULIEN LA RUCHE SE 104 00:53:12 05:19 11.27
294 DELCAMPE LAURE BAC DA 9 00:53:13 05:19 11.27
295 CASTERMAN THIERRY   V2 41 00:53:18 05:20 11.25
296 WATTIEZ MURIELLE PIPAIX A1 10 00:53:25 05:21 11.23
297 VANDEMEULEBROECKE JEAN-FRANÇOIS   V1 101 00:53:26 05:21 11.22
298 MARYSSE MAXENCE   SE 105 00:53:27 05:21 11.22
299 WOESTYN JEAN-FRANÇOIS   SE 106 00:53:29 05:21 11.21
300 VANLANCKER LEO RUNNING SAFE SE 107 00:53:32 05:21 11.20
301 ALLARD QUENTIN FOULÉE DU CŒUR SE 108 00:53:32 05:21 11.20
302 PREVOST MARIE CECILE TEMPLEUVE A1 11 00:53:33 05:21 11.20
303 DEVROEY VANESSA FARMERS CLUB A1 12 00:53:35 05:22 11.19
304 GRIVET DOMINIQUE C.T. ANTOING V1 102 00:53:35 05:22 11.19
305 BALAND JOHAN FARMERS CLUB V1 103 00:53:35 05:22 11.19
306 DE CRAENE JEAN-PHILIPPE   V1 104 00:53:36 05:22 11.19
307 FONTAINE FREDERIC   SE 109 00:53:36 05:22 11.19
308 AMORISON DAVID KERVASSIN SE 110 00:53:37 05:22 11.19
309 CORNU PIERRE-JEAN JCSA V2 42 00:53:43 05:22 11.16
310 DEVROEDE NORBERT POPUELLES DR... V3 13 00:53:44 05:23 11.16
311 VANUS ERIC RUN 4 FUN V2 43 00:53:47 05:23 11.15
312 BOCKLANT AURÉLIE   DA 10 00:53:50 05:23 11.14
313 CRUNELLE QUENTIN   SE 111 00:53:54 05:24 11.13
314 SEDJER GREGORY   SE 112 00:53:57 05:24 11.12
315 GHEKIERE PASCAL   V1 105 00:54:05 05:25 11.09
316 REGNIER HUGO LES CHARTREUX SE 113 00:54:06 05:25 11.09
317 NUYTTEN THIBAUT MC RUNNING V1 106 00:54:08 05:25 11.08
318 LECAT DANIEL ACCROS 5 CLO... V2 44 00:54:11 05:25 11.07
319 FRÉDÉRIC MARIE-PIERRE ACCROS 5 CLO... A2 6 00:54:12 05:25 11.07
320 DIRICQ PASCAL AC ST SAUVEU... V1 107 00:54:16 05:26 11.05
321 DEVOS SIMON   EH 13 00:54:16 05:26 11.05
322 BEGUE JEAN-FRANÇOIS JCPMF PECQ V1 108 00:54:17 05:26 11.05
323 VANHOUTTE GEOFFREY SPORT EVASION SE 114 00:54:18 05:26 11.04
324 POULET DAVID HC MOUSCRON V1 109 00:54:18 05:26 11.04
325 MAES ERIC SPORT EVASION V1 110 00:54:19 05:26 11.04
326 DESLOOVER NICOLAS LA RUCHE V1 111 00:54:19 05:26 11.04
327 DEPELCHIN ANNE MC RUNNING A1 13 00:54:22 05:26 11.03
328 POTAR SYLVIA SUKCESTFOU A2 7 00:54:24 05:27 11.02
329 PESTIAUX THIERRY JCPMF PECQ V2 45 00:54:24 05:27 11.02
330 ANSCIAUX GUILLAUME   SE 115 00:54:27 05:27 11.01
331 LOCHENIE DIDIER JC HERINNES V2 46 00:54:34 05:28 10.99
332 HENRY MICHEL JC HERINNES V2 47 00:54:40 05:28 10.97
333 BOHEMS ANDRÉ ACCROS 5 CLO... V2 48 00:54:41 05:28 10.97
334 GOEMAERE BART SUKCESTFOU V1 112 00:54:43 05:28 10.96
335 MESTDAGH VINCENT JC HERINNES V2 49 00:54:46 05:29 10.95
336 HUBAUT PAUL   SE 116 00:54:53 05:29 10.93
337 VERMEERSCH OLIVIER JCL V1 113 00:54:53 05:29 10.93
338 HAILLEZ ALISSON   DA 11 00:54:54 05:30 10.92
339 RENARD QUENTIN   SE 117 00:54:59 05:30 10.91
340 ERGO PHILIPPE JC HERINNES V2 50 00:55:00 05:30 10.90
341 DERREUMAUX DAVID RUNNING SAFE V1 114 00:55:01 05:30 10.90
342 DUPONTHIEU ANGELIQUE   A1 14 00:55:01 05:30 10.90
343 DESMET YVES JCSA V3 14 00:55:02 05:30 10.90
344 THIEFFRY JEAN-FRANÇOIS LES GENS D ERE V1 115 00:55:03 05:30 10.89
345 ROUSSEAU DAVID   V1 116 00:55:04 05:31 10.89
346 HAELTERS BRUNO VELAINES V1 117 00:55:08 05:31 10.88
347 VAN HEE OLIVIER WWW.RUNAISSA... V2 51 00:55:08 05:31 10.88
348 VERZELE MAXIME KAIN B SE 118 00:55:10 05:31 10.87
349 MESTDAGH PASCAL RC ESTAIMPUIS V2 52 00:55:11 05:31 10.87
350 BONTE BÉRENGÈRE JCPMF PECQ A1 15 00:55:14 05:32 10.86
351 DEGRANDE CHRISTOPHER   SE 119 00:55:16 05:32 10.85
352 DI SIPIO CIRO RUNNING FRIENDS V1 118 00:55:17 05:32 10.85
353 DELESIE JAN   V4 1 00:55:18 05:32 10.84
354 LEROY PHILIPPE PIPAIX V2 53 00:55:19 05:32 10.84
355 VANDENDORPE JAMES   V1 119 00:55:20 05:32 10.84
356 VAN DEYNZE LAURANNE MC RUNNING A1 16 00:55:23 05:32 10.83
357 VANDEVYVERE TEDDY SPORT EVASION SE 120 00:55:27 05:33 10.82
358 DEREYCK NOTCHEZ   SE 121 00:55:29 05:33 10.81
359 SPILEERS MARIE HELENE RUNNING SAFE DA 12 00:55:30 05:33 10.81
360 BOURGI PATRICK B BETES DE C... V2 54 00:55:31 05:33 10.80
361 HUAUX SYLVIE FARMERS CLUB A1 17 00:55:33 05:33 10.80
362 DI LAURO MARTINO VELAINES V3 15 00:55:37 05:34 10.78
363 NUTTE GAUTHIER   V1 120 00:55:37 05:34 10.78
364 RYCKEBOSCH LUDWIG B BETES DE C... V2 55 00:55:38 05:34 10.78
365 DETRAIN STÉPHANE   V1 121 00:55:42 05:34 10.77
366 DESLEE ERIC KAIN B V2 56 00:55:47 05:35 10.75
367 VANDENBULCKE FRANCIS SPORT EVASION V3 16 00:55:48 05:35 10.75
368 BOSSUYT SIMON   SE 122 00:55:49 05:35 10.74
369 BUCHET OLIVIER   SE 123 00:55:52 05:35 10.73
370 FAUCHART SEBASTIEN   V1 122 00:55:52 05:35 10.73
371 WERREBROUCK BLAISE MANHATTAN V2 57 00:55:58 05:36 10.72
372 SCHOONOOGHE ERWIN VELAINES V2 58 00:56:00 05:36 10.71
373 METENS BENJAMIN   SE 124 00:56:01 05:36 10.71
374 BATAILLE CLAUDE RC ESTAIMPUIS V4 2 00:56:01 05:36 10.71
375 VAN HAMME DIEGO   V1 123 00:56:05 05:37 10.69
376 HOUREZ DYLAN JC BLANDAIN SE 125 00:56:05 05:37 10.69
377 DEKEYZER TIFFANY   ED 4 00:56:05 05:37 10.69
378 OFFROY DAVID   V1 124 00:56:06 05:37 10.69
379 DELHAYE JEAN JACQUES RUNNINGGEEK.BE V1 125 00:56:07 05:37 10.69
380 ICITEGETSE VICTOR   SE 126 00:56:09 05:37 10.68
381 DUPREZ FABIEN   V1 126 00:56:10 05:37 10.68
382 ROOS JOËL   V2 59 00:56:12 05:37 10.67
383 VERBEKE JEAN-FRANCOIS   V1 127 00:56:12 05:37 10.67
384 VAN DE WALLE WESLEY   SE 127 00:56:18 05:38 10.65
385 BRAYE GEOFFREY JCL V1 128 00:56:18 05:38 10.65
386 CONART FRANÇOISE SPHO A2 8 00:56:19 05:38 10.65
387 AUDOOR ALAIN VELAINES V3 17 00:56:19 05:38 10.65
388 BEKAERT CHRISTOPHE TEMPLEUVE V1 129 00:56:24 05:39 10.63
389 BEQUET YANNICK FARMERS CLUB A2 9 00:56:25 05:39 10.63
390 LEPOUTRE VINCENT SPORT EVASIO... V1 130 00:56:29 05:39 10.62
391 VANDENBULCKE MELANIE SPORT EVASION DA 13 00:56:29 05:39 10.62
392 FRENOY FREDERIQUE   A1 18 00:56:31 05:39 10.61
393 DEGROEVE THIERRY   V1 131 00:56:32 05:39 10.61
394 DURIEZ PIERRE ANDRES TEAM SE 128 00:56:34 05:40 10.60
395 GEETS ROMAIN   EH 14 00:56:42 05:40 10.58
396 BECK JACQUES LESDAIN D LA... V2 60 00:56:42 05:40 10.58
397 BOSSUYT ANNE-MARIE   A2 10 00:56:42 05:40 10.58
398 PONCHAU JEAN-PAUL TEMPLEUVE V4 3 00:56:45 05:41 10.57
399 CABY BERNARD JCSA V3 18 00:56:46 05:41 10.56
400 MOREAU CLAUDE MC RUNNING ERE V2 61 00:56:47 05:41 10.56
401 HOVINE CONSTANTIN FARMERS CLUB V2 62 00:56:47 05:41 10.56
402 LECONTE BRIGITTE SPHO A3 1 00:56:48 05:41 10.56
403 COLPAERT THIERRY ETM V2 63 00:56:49 05:41 10.56
404 COPPENS MICHAEL JCL V1 132 00:56:50 05:41 10.55
405 BONTE LAURENCE JCPMF PECQ A2 11 00:56:52 05:41 10.55
406 VANDERZYPPE GERAUD   SE 129 00:56:54 05:42 10.54
407 LELEUX CHRISTOPHE WWW.RUNAISSA... SE 130 00:56:59 05:42 10.52
408 LIENART AMANDINE MC RUNNING DA 14 00:57:07 05:43 10.50
409 RUTMAN MAXIME RUN IN BOUSB... V1 133 00:57:08 05:43 10.50
410 DEGRAEVE ALAIN   V2 64 00:57:10 05:43 10.49
411 RUDEWIEZ PERRINE FORMYFIT DA 15 00:57:12 05:43 10.48
412 JALABERT LAURENT   V2 65 00:57:16 05:44 10.47
413 DE CLERCQ MARION FARMERS CLUB DA 16 00:57:18 05:44 10.47
414 LECROCQ DAVID RUN 4 FUN V1 134 00:57:25 05:45 10.45
415 CAMBIER ANNE-SOPHIE RUNNING SAFE DA 17 00:57:26 05:45 10.44
416 ROCCARO GIUSEPPE RUNNING SAFE V2 66 00:57:27 05:45 10.44
417 BRIEAU JULIE ET ENGHIEN DA 18 00:57:31 05:45 10.43
418 MINET JIMMY ET ENGHIEN SE 131 00:57:32 05:45 10.42
419 LECONTE INES VELAINES DA 19 00:57:39 05:46 10.40
420 DE MEESTER GERMAIN TOURPES V4 4 00:57:41 05:46 10.40
421 WYSEUR ALEXANDRE AMIS DU MARDI V1 135 00:57:42 05:46 10.39
422 CASTELEYN FRANÇOIS AMIS DU MARDI V1 136 00:57:43 05:46 10.39
423 BERTELOOT DIDIER JCL V2 67 00:57:47 05:47 10.38
424 VANHOUTTE FRANÇOIS   SE 132 00:57:51 05:47 10.37
425 GONTON DELPHINE VELAINES DA 20 00:57:51 05:47 10.37
426 CORNILLIE HERVÉ   V1 137 00:57:52 05:47 10.36
427 JARRY FREDERIC   SE 133 00:57:54 05:48 10.36
428 FONTAINE LUC JCPMF PECQ V3 19 00:57:55 05:48 10.35
429 FUNDUK STÉPHANIE   A1 19 00:57:56 05:48 10.35
430 FOUTREYN SANDRINE ETM A1 20 00:57:57 05:48 10.35
431 HUET RENÉE COCOACH A2 12 00:57:57 05:48 10.35
432 DELAUNOY JACQUES   V3 20 00:58:01 05:48 10.34
433 STEVENS LAURENT ACCROS 5 CLO... V1 138 00:58:02 05:48 10.33
434 DECALUWÉ PIERRE CNDK V4 5 00:58:02 05:48 10.33
435 DEGROOTE JASON   V1 139 00:58:08 05:49 10.32
436 DELVILLE GÉRARD   V2 68 00:58:10 05:49 10.31
437 ARANCIO ANGELO   SE 134 00:58:12 05:49 10.30
438 DUC ERIC JCSA V2 69 00:58:13 05:49 10.30
439 PESTIAUX MARIE JCPMF PECQ DA 21 00:58:16 05:50 10.29
440 VANSEVEREN AURÉLIE SUKCESTFOU DA 22 00:58:17 05:50 10.29
441 DUPONT ETHEL ACCROS 5 CLO... A1 21 00:58:19 05:50 10.28
442 DECRAENE JIMMY JCL V1 140 00:58:31 05:51 10.25
443 DERMAUT LUC FARMERS CLUB V2 70 00:58:32 05:51 10.25
444 GUYOT CLÉMENT RC ESTAIMPUIS EH 15 00:58:34 05:52 10.24
445 COLLIGNON TIM   SE 135 00:58:34 05:52 10.24
446 LE PERROT JÉRÉMY ETM SE 136 00:58:37 05:52 10.23
447 BEQUET JEAN-MARC FARMERS CLUB V2 71 00:58:38 05:52 10.23
448 GEURTS OLIVIER JC HERINNES V1 141 00:58:42 05:52 10.22
449 KAIN EMILIE   DA 23 00:58:43 05:52 10.21
450 DECUBBER ISABELLE   A1 22 00:58:43 05:52 10.21
451 VANDERSTRAETEM LAURENT   V1 142 00:58:43 05:52 10.21
452 RAVIART SOPHIE   A1 23 00:58:45 05:53 10.21
453 MICHEL JACQUES   V3 21 00:58:50 05:53 10.19
454 MARTIN YVES KAIN B V3 22 00:58:50 05:53 10.19
455 LECLERCQ PHILIPPE JCPMF PECQ V2 72 00:58:50 05:53 10.19
456 VANSTEENBRUGGE DOMINIQUE JC HERINNES A2 13 00:58:54 05:54 10.18
457 DEGALLAIX RÉGINALD   V1 143 00:58:56 05:54 10.18
458 VANDEPUTTE WILLY JC HERINNES V4 6 00:59:05 05:55 10.15
459 PROFETTO MICHELANGELO RC ESPLECHIN V2 73 00:59:12 05:55 10.13
460 VANDERHAEGEN JACQUES B BETES DE C... V3 23 00:59:12 05:55 10.13
461 LARHRIB SALIM   V1 144 00:59:17 05:56 10.12
462 VANDER EECKEN FABRICE VELAINES V1 145 00:59:26 05:57 10.09
463 VANDENDYCK VANESSA   A1 24 00:59:30 05:57 10.08
464 FERVAILLE FABIENNE KAIN B A2 14 00:59:32 05:57 10.07
465 WETZEL-GOUBE ISABELLE   A1 25 00:59:33 05:57 10.07
466 BREBION AMÉLIE   DA 24 00:59:35 05:58 10.07
467 COUSSÉ CHRISTOPHE VELAINES V2 74 00:59:36 05:58 10.06
468 DUFOUR LINE VELAINES A2 15 00:59:37 05:58 10.06
469 VANCOPPENOLLE GUY   V3 24 00:59:38 05:58 10.06
470 PORCU CLARA JCL A2 16 00:59:38 05:58 10.06
471 MOULIN EDDY LES GENS D ERE V2 75 00:59:41 05:58 10.05
472 OFFROY PHILIPPE   V3 25 00:59:42 05:58 10.05
473 VANDERSTEENE DAVID JCL V1 146 00:59:44 05:59 10.04
474 COUSSEMENT ALEXANDRA VELAINES DA 25 00:59:45 05:59 10.04
475 GLORIEUX STEPHANE VELAINES V1 147 00:59:47 05:59 10.03
476 GRULOIS DOMINIQUE   V3 26 00:59:48 05:59 10.03
477 BREYNE ELODIE JCL DA 26 00:59:49 05:59 10.03
478 MUSUMECI BRUNO JCSA V3 27 00:59:58 06:00 10.00
479 DEBOEVER FRANCIS   V2 76 01:00:03 06:00 9.99
480 SCOLAS BENEDICTE   DA 27 01:00:11 06:01 9.96
481 KAIN SÉVERINE   DA 28 01:00:12 06:01 9.96
482 CASTELEYN LAURENCE   A2 17 01:00:16 06:02 9.95
483 HEREMANS PATRICK CHRYPAT V2 77 01:00:18 06:02 9.95
484 DELMAY CHRYSTELLE CHRYPAT A1 26 01:00:20 06:02 9.94
485 DEMITRI COSIMO TORTUES MESL... V3 28 01:00:23 06:02 9.93
486 ROSIER JULIE WRC DA 29 01:00:26 06:03 9.92
487 SIMONART DAVID   V1 148 01:00:50 06:05 9.86
488 PANCHERI STEPHANIE LES ECLATES ... A1 27 01:00:53 06:05 9.85
489 DEBOEVER GUILLAUME   SE 137 01:00:53 06:05 9.85
490 DEMAESENEIRE MICHAËL AS THURAWA V2 78 01:00:57 06:06 9.84
491 ANTRIF OLIVIER   V1 149 01:01:03 06:06 9.82
492 STEURBAUT JEAN-FRANÇOIS JCL V2 79 01:01:04 06:07 9.82
493 DEZEQUE DOMINIQUE JCSA V2 80 01:01:05 06:07 9.82
494 LEERSNYDER JOEL VELAINES V4 7 01:01:08 06:07 9.81
495 LEROY AUDREY JC HERINNES A1 28 01:01:09 06:07 9.81
496 PIERQUIN SABINE JC HERINNES A2 18 01:01:10 06:07 9.80
497 DASSONVILLE XAVIER CEUX DU LAC V3 29 01:01:11 06:07 9.80
498 LEMAIRE PERRINE RC ESTAIMPUIS DA 30 01:01:15 06:08 9.79
499 MOULIN JEAN-PIERRE LES GENS D ERE V3 30 01:01:18 06:08 9.78
500 LEMOINE CHRISTELLE KAIN B A2 19 01:01:23 06:08 9.77
501 VAN NESTE RUDY MOVE COACHING V1 150 01:01:24 06:09 9.77
502 MOREAU EDWIN   SE 138 01:01:33 06:09 9.74
503 FOURMY DORINE   DA 31 01:01:33 06:09 9.74
504 RICHELIN PATRICK KAIN B V2 81 01:01:33 06:09 9.74
505 VILLÉE VINCENT JCSA V2 82 01:01:36 06:10 9.74
506 MERIAUX TIPHAINE   DA 32 01:01:38 06:10 9.73
507 ABANDON OLIVIER ATHOIS DE CO... V1 151 01:01:41 06:10 9.72
508 CARPENTIER JEAN-MICHEL JC HERINNES V2 83 01:01:47 06:11 9.71
509 MARQUEZ ANDRES ANDRES TEAM V2 84 01:01:55 06:12 9.69
510 MAILLY ROLAND JCSA V3 31 01:02:01 06:12 9.67
511 BARBE MAXIME   SE 139 01:02:04 06:13 9.66
512 HANS CLÉMENTINE ADDM OGY DA 33 01:02:04 06:13 9.66
513 GRAINDORGE CATHERINE LES ECALTES A2 20 01:02:07 06:13 9.65
514 CARPREAU GREGORY   V1 152 01:02:10 06:13 9.65
515 FRIQUE MARIE-ANNE VELAINES A3 2 01:02:11 06:13 9.64
516 CHOISEZ NATHALIE LES GENS D ERE A1 29 01:02:12 06:13 9.64
517 BAUGNIES VALERIE TORTUES MESL... A1 30 01:02:19 06:14 9.62
518 VERRUE FRANCIS BAC V4 8 01:02:20 06:14 9.62
519 DEPOURCQ PEGGY   A1 31 01:02:20 06:14 9.62
520 DESMETS ALEXANDRE SPORT NAT MO... V2 85 01:02:23 06:14 9.61
521 GLORIEUX THIERRY VELAINES V2 86 01:02:25 06:15 9.61
522 CAPPON BERNARD   V3 32 01:02:27 06:15 9.60
523 NICOLLE BRUNO   V2 87 01:02:44 06:17 9.56
524 HEUX AURELIEN   SE 140 01:02:46 06:17 9.55
525 BECQUAERT MARIE-PIERRE   A1 32 01:02:58 06:18 9.52
526 COLLIE CHRISTINE JC HERINNES A2 21 01:03:00 06:18 9.52
527 GOEMAERE DOLORES   DA 34 01:03:08 06:19 9.50
528 LIBBRECHT LAURENT JCPMF PECQ V1 153 01:03:19 06:20 9.47
529 MILLE DAMIEN JCPMF PECQ V1 154 01:03:21 06:20 9.47
530 DELAUNOY JEAN   V3 33 01:03:23 06:20 9.46
531 DEPREZ VALÉRIE JCL A1 33 01:03:23 06:20 9.46
532 ANDRADE JONATHAN ANDRES TEAM SE 141 01:03:24 06:21 9.46
533 DEFRANCQ KATRIEN NO LIMED TEA... A1 34 01:03:34 06:22 9.43
534 FRIQUET JEAN-NOËL PIPAIX V2 88 01:03:36 06:22 9.43
535 DUPONT CARINE   A2 22 01:03:37 06:22 9.43
536 TANCREDI GIOVANNI ACBB V2 89 01:03:37 06:22 9.43
537 DHAEYER ETIENNE   V2 90 01:03:38 06:22 9.42
538 PALMELA SONIA ACBB A1 35 01:03:38 06:22 9.42
539 VANGHELUWE PATRICK VELAINES V3 34 01:03:41 06:22 9.42
540 DE LANGHE BRUNO LES GENS D ERE V3 35 01:03:53 06:23 9.39
541 MIROIR CATHERINE LES ECLATES ... A2 23 01:03:57 06:24 9.38
542 LEPERS FRANCK   V2 91 01:04:04 06:25 9.36
543 FRANÇOIS JOSÉ VELAINES V3 36 01:04:18 06:26 9.33
544 DEBOURSE PHILIPPE SPHO V3 37 01:04:38 06:28 9.28
545 DANGREAU CHRISTELLE SPHO A2 24 01:04:40 06:28 9.27
546 VERZELE LOÏC   SE 142 01:04:45 06:29 9.26
547 DEBERDT DANY MMM V4 9 01:04:48 06:29 9.26
548 BEUKENNE EMMANUEL   V2 92 01:04:55 06:30 9.24
549 DELHAYE CARL JC HERINNES V3 38 01:04:59 06:30 9.23
550 BINET JOHNNY ACCROS 5 CLO... V2 93 01:05:01 06:30 9.22
551 JANIKOWSKI MARINE   DA 35 01:05:02 06:30 9.22
552 GUELTON LOLITA   DA 36 01:05:03 06:30 9.22
553 FRANCOIS JUSTINE RUN 4 FUN DA 37 01:05:24 06:33 9.17
554 PLUQUET EDDY   V1 155 01:05:55 06:36 9.10
555 DEBAYE MELANIE   A1 36 01:05:57 06:36 9.09
556 DE NÈVE CHANTAL AC ST SAUVEU... A2 25 01:05:57 06:36 9.09
557 MICLOTTE MURIELLE ATH A2 26 01:05:57 06:36 9.09
558 SIMON OPHÉLIE L'AS DE LA T... DA 38 01:06:06 06:37 9.07
559 DUMETZ ANTOINE   EH 16 01:06:09 06:37 9.07
560 BULTOT JEAN-MARIE RMT V3 39 01:06:10 06:37 9.06
561 ROUPIN TONY   SE 143 01:06:24 06:39 9.03
562 DELVAUX MATHIS   EH 17 01:06:45 06:41 8.98
563 BEKAERT NANCY JCL A1 37 01:07:02 06:42 8.95
564 CLÉMENT NATHALIE PIPAIX A1 38 01:07:05 06:43 8.94
565 GOREZ ISABELLE PIPAIX A1 39 01:07:05 06:43 8.94
566 FONTAINE CHRISTELLE TEMPLEUVE A2 27 01:07:05 06:43 8.94
567 HOVINE MARIE-CECILE RC ESTAIMPUIS A1 40 01:07:06 06:43 8.94
568 HELIN VÉRONIQUE   A2 28 01:07:10 06:43 8.93
569 MAIRIE PHILIPPE VELAINES V2 94 01:07:11 06:43 8.93
570 WAELS ROBERT CEUX DU LAC V3 40 01:07:16 06:44 8.92
571 DUTMOO DELPHINE   A1 41 01:07:28 06:45 8.89
572 PHILIPPE SERGE   V2 95 01:07:56 06:48 8.83
573 FONTAINE PIERRE   V2 96 01:08:02 06:48 8.82
574 DI VITA ROCCO JCSA V4 10 01:08:20 06:50 8.78
575 YPERSIEL JESSICA MOVE COACHING DA 39 01:08:40 06:52 8.73
576 COCHEZ JEAN-ALBERT KAIN B V3 41 01:08:44 06:53 8.73
577 ALLARD STEPHANE WWW.RUNAISSA... V3 42 01:08:49 06:53 8.71
578 ROUSSEAU CHRISTINE RUN SANTE A3 3 01:08:52 06:53 8.71
579 DEFREITAS MARIE   DA 40 01:08:52 06:53 8.71
580 DEFREITAS LAURENCE RUN SANTE A1 42 01:08:52 06:53 8.71
581 WALLET KARINE RUN SANTE A2 29 01:08:52 06:53 8.71
582 SECLÈVE ARLETTE VELAINES A3 4 01:09:07 06:55 8.68
583 KIESECOMS CAROLINE   A1 43 01:11:00 07:06 8.45
584 ROLLAND PHILIPPE MOVE COACHING V2 97 01:11:24 07:09 8.40
585 AMMI SOUMIA   A2 30 01:11:32 07:09 8.38
586 THIMUS BAUDOUIN PIPAIX V3 43 01:11:35 07:10 8.38
587 KARRAZ KHALID   V2 98 01:11:35 07:10 8.38
588 MERCIER ISABELLE   A2 31 01:12:03 07:12 8.32
589 SALOMÉ MICHEL ACCROS 5 CLO... V2 99 01:12:04 07:13 8.32
590 ZHANG CHUN RMT V2 100 01:12:08 07:13 8.31
591 DELONVILLE ALAIN VELAINES V3 44 01:12:19 07:14 8.29
592 BEN EL HAKAM DELIA   DA 41 01:12:32 07:15 8.27
593 AERTS THOMAS   SE 144 01:12:33 07:15 8.27
594 NEF MARC AMIS DU JEUDI V4 11 01:13:27 07:21 8.17
595 ALAVOINE CORALIE JCL A1 44 01:14:46 07:29 8.02
596 BOULÉ SÉVERINE   A1 45 01:15:28 07:33 7.95
597 GRAVELINE JEANNICK L'AS DE LA T... A2 32 01:16:58 07:42 7.79
598 HACHA FRANÇOIS CNDK V2 101 01:17:11 07:43 7.77